16 sierpnia 2022

Czas Kod Pogoda Temp. Widoczność Sufit Wiatr METAR/SPECI
15:00
V
32 °C 10 km+ - 080° 080° 20 kt METAR LFMK 161300Z AUTO 08020KT CAVOK 32/18 Q1005 TEMPO VRB25G40KT 2000 TSRAGR BECMG FEW060CB BKN120
14:30
V
31 °C 10 km+ - 080° 080° 18 kt METAR LFMK 161230Z AUTO 08018KT 050V110 CAVOK 31/18 Q1006 TEMPO VRB25G40KT 2000 TSRAGR BECMG FEW060CB BKN120
14:00
V
32 °C 10 km+ - 080° 080° 19 kt METAR LFMK 161200Z AUTO 08019KT CAVOK 32/17 Q1006 TEMPO VRB25G40KT 2000 TSRAGR BECMG FEW060CB BKN120
13:30
V
31 °C 10 km+ - 080° 080° 18 kt METAR LFMK 161130Z AUTO 08018KT 050V120 CAVOK 31/17 Q1006 TEMPO VRB25G40KT 2000 TSRAGR BECMG FEW060CB BKN120
13:00
V
31 °C 10 km+ - 080° 080° 19 kt METAR LFMK 161100Z AUTO 08019KT CAVOK 31/16 Q1006 BECMG 09015G25KT FEW060CB BKN120
12:30
V
30 °C 10 km+ - 090° 090° 17 kt METAR LFMK 161030Z AUTO 09017KT CAVOK 30/15 Q1006 BECMG 09015G25KT FEW060CB BKN120
12:00
V
30 °C 10 km+ - 080° 080° 17 kt METAR LFMK 161000Z AUTO 08017KT 050V110 CAVOK 30/15 Q1007 BECMG 09015G25KT FEW060CB BKN120
11:30
V
29 °C 10 km+ - 080° 080° 17 kt METAR LFMK 160930Z AUTO 08017KT CAVOK 29/14 Q1007 BECMG 09015G25KT FEW060CB BKN120
11:00
V
28 °C 10 km+ - 080° 080° 15 kt METAR LFMK 160900Z AUTO 08015KT CAVOK 28/13 Q1007 BECMG 09015G25KT
10:30
V
27 °C 10 km+ - 080° 080° 16 kt METAR LFMK 160830Z AUTO 08016KT CAVOK 27/13 Q1007 TEMPO 10015G25KT
10:00
V
26 °C 10 km+ - 070° 070° 13 kt METAR LFMK 160800Z AUTO 07013KT CAVOK 26/14 Q1007 TEMPO 10015G25KT
09:30
V
24 °C 10 km+ - 080° 080° 11 kt METAR LFMK 160730Z AUTO 08011KT CAVOK 24/14 Q1007 TEMPO 10015G25KT
09:00
V
23 °C 10 km+ - 080° 080° 9 kt METAR LFMK 160700Z AUTO 08009KT CAVOK 23/13 Q1007 TEMPO 10015G25KT
08:30
V
21 °C 10 km+ - 080° 080° 6 kt METAR LFMK 160630Z AUTO 08006KT CAVOK 21/14 Q1007 TEMPO 10015G25KT
08:00
V
19 °C 10 km+ - Var 000° 0 kt METAR LFMK 160600Z AUTO 00000KT CAVOK 19/14 Q1008 TEMPO 10015G25KT
07:30
V
16 °C 10 km+ - Var Var 2 kt METAR LFMK 160530Z AUTO VRB02KT CAVOK 16/13 Q1008 TEMPO 10015G25KT
07:00
V
15 °C 10 km+ - Var Var 1 kt METAR LFMK 160500Z AUTO VRB01KT CAVOK 15/13 Q1008 NOSIG
06:30
V
15 °C 10 km+ - Var Var 2 kt METAR LFMK 160430Z AUTO VRB02KT CAVOK 15/12 Q1007 NOSIG
06:00
V
16 °C 10 km+ - Var Var 2 kt METAR LFMK 160400Z AUTO VRB02KT CAVOK 16/13 Q1007 NOSIG
05:30
V
16 °C 10 km+ - Var Var 2 kt METAR LFMK 160330Z AUTO VRB02KT CAVOK 16/13 Q1008 NOSIG
05:00
V
16 °C 10 km+ - 270° 270° 2 kt METAR LFMK 160300Z AUTO 27002KT CAVOK 16/13 Q1008
04:30
V
17 °C 10 km+ - 230° 230° 2 kt METAR LFMK 160230Z AUTO 23002KT CAVOK 17/13 Q1008
04:00
V
17 °C 10 km+ - 280° 280° 2 kt METAR LFMK 160200Z AUTO 28002KT CAVOK 17/13 Q1008
03:30
V
19 °C 10 km+ - Var Var 3 kt METAR LFMK 160130Z AUTO VRB03KT CAVOK 19/13 Q1008
03:00
V
19 °C 10 km+ - 180° 180° 4 kt METAR LFMK 160100Z AUTO 18004KT 150V230 CAVOK 19/13 Q1008
02:30
V
19 °C 10 km+ - 180° 180° 4 kt METAR LFMK 160030Z AUTO 18004KT 130V220 CAVOK 19/13 Q1008
02:00
V
19 °C 10 km+ - Var Var 3 kt METAR LFMK 160000Z AUTO VRB03KT CAVOK 19/13 Q1009
01:30
V
20 °C 10 km+ - Var Var 2 kt METAR LFMK 152330Z AUTO VRB02KT CAVOK 20/13 Q1009
01:00
V
21 °C 10 km+ - 170° 170° 4 kt METAR LFMK 152300Z AUTO 17004KT 120V240 CAVOK 21/13 Q1009
00:30
V
21 °C 10 km+ - 170° 170° 3 kt METAR LFMK 152230Z AUTO 17003KT 130V220 CAVOK 21/14 Q1009
00:00
V
21 °C 10 km+ - Var Var 2 kt METAR LFMK 152200Z AUTO VRB02KT CAVOK 21/13 Q1009

15 sierpnia 2022

Czas Kod Pogoda Temp. Widoczność Sufit Wiatr METAR/SPECI
23:30
V
21 °C 10 km+ - Var Var 1 kt METAR LFMK 152130Z AUTO VRB01KT CAVOK 21/13 Q1009
23:00
V
22 °C 10 km+ - Var Var 3 kt METAR LFMK 152100Z AUTO VRB03KT CAVOK 22/13 Q1009
22:30
V
22 °C 10 km+ - 280° 280° 2 kt METAR LFMK 152030Z AUTO 28002KT CAVOK 22/13 Q1009
22:00
V
23 °C 10 km+ - 270° 270° 2 kt METAR LFMK 152000Z AUTO 27002KT CAVOK 23/14 Q1009
21:30
V
24 °C 10 km+ - 270° 270° 2 kt METAR LFMK 151930Z AUTO 27002KT CAVOK 24/13 Q1008
21:00
V
26 °C 10 km+ - 290° 290° 3 kt METAR LFMK 151900Z AUTO 29003KT CAVOK 26/13 Q1008
20:30
V
28 °C 10 km+ - 300° 300° 5 kt METAR LFMK 151830Z AUTO 30005KT 270V330 CAVOK 28/13 Q1008
20:00
V
28 °C 10 km+ - 290° 290° 5 kt METAR LFMK 151800Z AUTO 29005KT 260V320 CAVOK 28/13 Q1008 NOSIG
19:30
V
29 °C 10 km+ - 300° 300° 5 kt METAR LFMK 151730Z AUTO 30005KT 260V330 CAVOK 29/13 Q1008 NOSIG
19:00
V
29 °C 10 km+ - 280° 280° 8 kt METAR LFMK 151700Z AUTO 28008KT 250V310 CAVOK 29/13 Q1008 NOSIG
18:30
V
30 °C 10 km+ - 310° 310° 7 kt METAR LFMK 151630Z AUTO 31007KT 270V360 CAVOK 30/13 Q1008 NOSIG
18:00
V
30 °C 10 km+ - 310° 310° 8 kt METAR LFMK 151600Z AUTO 31008KT 250V350 CAVOK 30/13 Q1008 NOSIG
17:30
V
29 °C 10 km+ - 260° 260° 9 kt METAR LFMK 151530Z AUTO 26009KT 190V300 9999 FEW066 29/13 Q1008 NOSIG
17:00
V
30 °C 10 km+ - 270° 270° 10 kt METAR LFMK 151500Z AUTO 27010KT 220V310 CAVOK 30/14 Q1008 NOSIG
16:30
V
30 °C 10 km+ - 260° 260° 7 kt METAR LFMK 151430Z AUTO 26007KT 170V290 9999 FEW062 30/14 Q1008 NOSIG
16:00
V
30 °C 10 km+ - 300° 300° 8 kt METAR LFMK 151400Z AUTO 30008KT 260V010 9999 FEW060 30/14 Q1009 NOSIG
15:30
V
29 °C 10 km+ - 280° 280° 12 kt METAR LFMK 151330Z AUTO 28012KT 230V330 9999 FEW056 29/14 Q1009 NOSIG
15:00
V
29 °C 10 km+ - 280° 280° 12 kt METAR LFMK 151300Z AUTO 28012KT 230V310 CAVOK 29/14 Q1009 TEMPO 29015G25KT
14:30
V
28 °C 10 km+ - 290° 290° 11 kt METAR LFMK 151230Z AUTO 29011KT 220V340 CAVOK 28/14 Q1009 TEMPO 29015G25KT
14:00
V
28 °C 10 km+ - 290° 290° 10 kt METAR LFMK 151200Z AUTO 29010KT 240V330 CAVOK 28/14 Q1009 TEMPO 29015G25KT
13:30
V
28 °C 10 km+ - 280° 280° 11 kt METAR LFMK 151130Z AUTO 28011KT 230V320 9999 FEW047 28/14 Q1010 TEMPO 29015G25KT
13:00
V
27 °C 10 km+ - 280° 280° 10 kt METAR LFMK 151100Z AUTO 28010KT 240V330 9999 SCT046 27/14 Q1010 TEMPO 29015G25KT
12:30
V
26 °C 10 km+ - 270° 270° 9 kt METAR LFMK 151030Z AUTO 27009KT 230V300 9999 FEW046 26/14 Q1010 TEMPO 29015G25KT
12:00
V
26 °C 10 km+ 4.600 ft 270° 270° 11 kt METAR LFMK 151000Z AUTO 27011KT 240V310 9999 OVC046 26/14 Q1010 TEMPO 29015G25KT
11:30
V
25 °C 10 km+ 4.700 ft 270° 270° 12 kt METAR LFMK 150930Z AUTO 27012KT 240V300 9999 BKN047 25/14 Q1010 TEMPO 29015G25KT
11:00
V
25 °C 10 km+ 4.800 ft 260° 260° 10 kt METAR LFMK 150900Z AUTO 26010KT 220V290 9999 BKN048 25/15 Q1010 NOSIG
10:30
V
24 °C 10 km+ - 280° 280° 10 kt METAR LFMK 150830Z AUTO 28010KT 230V310 CAVOK 24/14 Q1010 NOSIG
10:00
V
24 °C 10 km+ - 280° 280° 12 kt METAR LFMK 150800Z AUTO 28012KT 240V300 CAVOK 24/14 Q1010 NOSIG
09:30
V
23 °C 10 km+ 4.000 ft 270° 270° 11 kt METAR LFMK 150730Z AUTO 27011KT 230V290 9999 OVC040 23/15 Q1010 NOSIG
09:00
V
22 °C 10 km+ - 270° 270° 9 kt METAR LFMK 150700Z AUTO 27009KT 230V300 9999 SCT039 22/15 Q1010 NOSIG
08:30
V
21 °C 10 km+ - 270° 270° 8 kt METAR LFMK 150630Z AUTO 27008KT 230V300 CAVOK 21/15 Q1010 NOSIG
08:00
V
21 °C 10 km+ - 270° 270° 9 kt METAR LFMK 150600Z AUTO 27009KT CAVOK 21/15 Q1010 NOSIG
07:30
V
20 °C 10 km+ - 280° 280° 9 kt METAR LFMK 150530Z AUTO 28009KT 9999 FEW045 20/15 Q1010 NOSIG
07:00
V
20 °C 10 km+ - 270° 270° 8 kt METAR LFMK 150500Z AUTO 27008KT 9999 SCT044 20/16 Q1010 NOSIG
06:30
V
21 °C 10 km+ - 270° 270° 8 kt METAR LFMK 150430Z AUTO 27008KT 240V300 CAVOK 21/16 Q1010 NOSIG
06:00
V
21 °C 10 km+ - 260° 260° 6 kt METAR LFMK 150400Z AUTO 26006KT CAVOK 21/16 Q1010 NOSIG
05:30
V
21 °C 10 km+ - 260° 260° 6 kt METAR LFMK 150330Z AUTO 26006KT 9999 SCT046 21/16 Q1010 NOSIG
05:00
V
21 °C 10 km+ - 260° 260° 6 kt METAR LFMK 150300Z AUTO 26006KT 220V290 CAVOK 21/16 Q1010
04:30
V
21 °C 10 km+ - 260° 260° 5 kt METAR LFMK 150230Z AUTO 26005KT 230V290 CAVOK 21/16 Q1010
04:00
V
21 °C 10 km+ - 240° 240° 5 kt METAR LFMK 150200Z AUTO 24005KT 210V270 CAVOK 21/16 Q1010
03:30
V
22 °C 10 km+ - 270° 270° 6 kt METAR LFMK 150130Z AUTO 27006KT 250V310 CAVOK 22/16 Q1010
03:00
V
22 °C 10 km+ - 260° 260° 5 kt METAR LFMK 150100Z AUTO 26005KT CAVOK 22/17 Q1010
02:30
V
23 °C 10 km+ - 260° 260° 5 kt METAR LFMK 150030Z AUTO 26005KT 220V280 CAVOK 23/17 Q1010
02:00
V
23 °C 10 km+ - 240° 240° 5 kt METAR LFMK 150000Z AUTO 24005KT 220V280 9999 SCT056 23/16 Q1010
01:30
V
23 °C 10 km+ 5.600 ft 240° 240° 5 kt METAR LFMK 142330Z AUTO 24005KT 210V270 9999 OVC056 23/16 Q1010
01:00
V
23 °C 10 km+ - 270° 270° 3 kt METAR LFMK 142300Z AUTO 27003KT 240V300 9999 FEW054 SCT068 23/16 Q1010
00:30
V
24 °C 10 km+ 5.400 ft Var Var 3 kt METAR LFMK 142230Z AUTO VRB03KT 9999 BKN054 OVC076 24/16 Q1011
00:00
V
24 °C 10 km+ 6.000 ft 290° 290° 6 kt METAR LFMK 142200Z AUTO 29006KT 9999 OVC060 24/16 Q1011

14 sierpnia 2022

Czas Kod Pogoda Temp. Widoczność Sufit Wiatr METAR/SPECI
23:30
V
25 °C 10 km+ 6.800 ft 290° 290° 6 kt METAR LFMK 142130Z AUTO 29006KT 9999 BKN068 BKN084 25/16 Q1010
23:00
V
25 °C 10 km+ 6.400 ft 280° 280° 8 kt METAR LFMK 142100Z AUTO 28008KT 9999 BKN064 OVC074 25/16 Q1010
22:30
V
25 °C 10 km+ 6.200 ft 280° 280° 7 kt METAR LFMK 142030Z AUTO 28007KT 9999 BKN062 25/16 Q1010
22:00
V
25 °C 10 km+ - 290° 290° 5 kt METAR LFMK 142000Z AUTO 29005KT CAVOK 25/16 Q1010
21:30
V
25 °C 10 km+ - 290° 290° 4 kt METAR LFMK 141930Z AUTO 29004KT CAVOK 25/16 Q1009
21:00
V
27 °C 10 km+ - 290° 290° 6 kt METAR LFMK 141900Z AUTO 29006KT CAVOK 27/16 Q1009
20:30
V
27 °C 10 km+ - 290° 290° 9 kt METAR LFMK 141830Z AUTO 29009KT 9999 FEW070 SCT092 27/15 Q1008 NOSIG
20:00
V
28 °C 10 km+ - 280° 280° 9 kt METAR LFMK 141800Z AUTO 28009KT 9999 FEW070 28/16 Q1008 NOSIG
19:30
V
29 °C 10 km+ - 280° 280° 9 kt METAR LFMK 141730Z AUTO 28009KT 240V310 9999 FEW062 SCT072 29/15 Q1008 NOSIG
19:00
V
30 °C 10 km+ 7.000 ft 300° 300° 6 kt METAR LFMK 141700Z AUTO 30006KT 280V340 9999 BKN070 30/15 Q1008 TEMPO BKN060 FEW090CB
18:30
V
30 °C 10 km+ 9.200 ft 310° 310° 8 kt METAR LFMK 141630Z AUTO 31008KT 280V350 9999 SCT074 BKN092 30/15 Q1008 TEMPO BKN060 FEW090CB
18:00
V
30 °C 10 km+ 7.600 ft 320° 320° 8 kt METAR LFMK 141600Z AUTO 32008KT 290V350 9999 SCT064 BKN076 OVC086 30/15 Q1008 TEMPO BKN060 FEW090CB
17:30
V
31 °C 10 km+ 6.800 ft 330° 330° 11 kt METAR LFMK 141530Z AUTO 33011KT 300V010 9999 BKN068 BKN082 31/15 Q1008 TEMPO BKN060 FEW090CB
17:00
V
31 °C 10 km+ 6.200 ft 320° 320° 11 kt METAR LFMK 141500Z AUTO 32011KT 290V360 9999 BKN062 BKN078 31/15 Q1009 TEMPO BKN060 FEW090CB
16:30
V
31 °C 10 km+ - 280° 280° 11 kt METAR LFMK 141430Z AUTO 28011KT 240V310 CAVOK 31/16 Q1009 TEMPO 30015G25KT
16:00
V
31 °C 10 km+ 5.600 ft 280° 280° 12 kt METAR LFMK 141400Z AUTO 28012KT 230V310 9999 BKN056 BKN072 31/15 Q1009 TEMPO 30015G25KT
Starsze dane

My i osoby trzecie śledzimy twoje zachowanie w internecie na naszej stronie za pomocą plików cookie. Jeśli kontynuujesz, zakładamy, że zgadzasz się z naszą polityką plików cookie. Dowiedz się więcej